createdAt,value
2022-08-08T00:01:13.747Z,98889.50
2022-08-08T00:03:49.694Z,98891.53
2022-08-08T00:06:35.263Z,98881.94
2022-08-08T00:09:12.034Z,98894.59
2022-08-08T00:12:06.986Z,98888.63
2022-08-08T00:14:57.096Z,98897.75
2022-08-08T00:18:02.577Z,98890.84
2022-08-08T00:20:37.082Z,98884.78
2022-08-08T00:23:11.605Z,98882.28
2022-08-08T00:25:50.985Z,98888.34
2022-08-08T00:28:34.888Z,98884.38
2022-08-08T00:32:29.361Z,98882.69
2022-08-08T00:34:36.335Z,98886.06
2022-08-08T00:37:45.097Z,98891.28
2022-08-08T00:41:08.978Z,98892.78
2022-08-08T00:43:59.315Z,98893.16
2022-08-08T00:47:23.151Z,98886.03
2022-08-08T00:50:52.313Z,98876.75
2022-08-08T00:53:33.212Z,98878.63
2022-08-08T00:57:09.897Z,98874.69
2022-08-08T01:00:10.934Z,98881.69
2022-08-08T01:04:02.252Z,98868.94
2022-08-08T01:07:18.043Z,98870.75
2022-08-08T01:10:31.863Z,98880.84
2022-08-08T01:14:16.471Z,98876.13
2022-08-08T01:17:52.152Z,98882.16
2022-08-08T01:21:04.430Z,98873.59
2022-08-08T01:24:19.985Z,98872.09
2022-08-08T01:27:44.544Z,98875.28
2022-08-08T01:32:05.541Z,98871.72
2022-08-08T01:34:37.553Z,98868.66
2022-08-08T01:37:59.226Z,98878.81
2022-08-08T01:40:31.139Z,98877.31
2022-08-08T01:43:06.934Z,98871.25
2022-08-08T01:45:56.418Z,98877.47
2022-08-08T01:48:39.340Z,98878.31
2022-08-08T01:52:41.010Z,98886.22
2022-08-08T01:55:25.381Z,98883.69
2022-08-08T01:58:10.796Z,98888.72
2022-08-08T02:00:28.472Z,98874.25
2022-08-08T02:03:49.221Z,98878.50
2022-08-08T02:06:32.186Z,98879.34
2022-08-08T02:09:19.531Z,98879.16
2022-08-08T02:12:12.643Z,98872.91
2022-08-08T02:14:55.259Z,98876.44
2022-08-08T02:17:36.485Z,98878.16
2022-08-08T02:21:01.357Z,98874.63
2022-08-08T02:23:16.391Z,98884.53
2022-08-08T02:25:50.907Z,98886.59
2022-08-08T02:28:26.192Z,98890.25
2022-08-08T02:31:58.303Z,98883.91
2022-08-08T02:34:27.572Z,98892.13
2022-08-08T02:37:09.958Z,98892.31
2022-08-08T02:40:02.601Z,98897.38
2022-08-08T02:44:38.437Z,98900.72
2022-08-08T02:46:54.025Z,98890.97
2022-08-08T02:50:17.527Z,98900.41
2022-08-08T02:52:56.449Z,98896.84
2022-08-08T02:56:09.860Z,98895.75
2022-08-08T03:00:01.644Z,98894.19
2022-08-08T03:05:03.590Z,98890.19
2022-08-08T03:07:20.066Z,98888.44
2022-08-08T03:10:33.658Z,98892.63
2022-08-08T03:16:00.544Z,98893.50
2022-08-08T03:16:54.928Z,98891.81
2022-08-08T03:20:08.155Z,98890.81
2022-08-08T03:22:47.450Z,98900.09
2022-08-08T03:25:18.765Z,98893.84
2022-08-08T03:27:56.484Z,98895.34
2022-08-08T03:30:25.867Z,98898.22
2022-08-08T03:33:56.042Z,98900.94
2022-08-08T03:36:00.731Z,98898.38
2022-08-08T03:38:55.752Z,98898.22
2022-08-08T03:42:03.970Z,98902.78
2022-08-08T03:44:07.763Z,98900.94
2022-08-08T03:46:47.339Z,98902.59
2022-08-08T03:49:57.356Z,98907.31
2022-08-08T03:52:13.067Z,98902.94
2022-08-08T03:55:01.742Z,98901.28
2022-08-08T03:58:30.783Z,98907.50
2022-08-08T04:00:26.010Z,98910.00
2022-08-08T04:03:01.178Z,98911.03
2022-08-08T04:05:31.860Z,98906.00
2022-08-08T04:08:01.429Z,98906.16
2022-08-08T04:10:33.290Z,98907.56
2022-08-08T04:13:17.595Z,98912.75
2022-08-08T04:16:04.204Z,98923.53
2022-08-08T04:18:42.201Z,98921.03
2022-08-08T04:21:13.646Z,98915.63
2022-08-08T04:24:18.856Z,98914.97
2022-08-08T04:26:58.189Z,98917.00
2022-08-08T04:29:27.385Z,98919.69
2022-08-08T04:32:01.632Z,98923.56
2022-08-08T04:34:32.370Z,98918.84
2022-08-08T04:37:18.087Z,98923.91
2022-08-08T04:40:03.928Z,98930.34
2022-08-08T04:42:36.924Z,98934.53
2022-08-08T04:45:06.836Z,98928.63
2022-08-08T04:47:36.445Z,98929.50
2022-08-08T04:50:06.279Z,98930.34
2022-08-08T04:52:35.372Z,98926.81
2022-08-08T04:55:04.512Z,98934.03
2022-08-08T04:57:36.303Z,98931.34
2022-08-08T05:00:08.110Z,98937.59
2022-08-08T05:02:42.302Z,98925.09
2022-08-08T05:05:19.998Z,98931.53
2022-08-08T05:07:49.027Z,98930.69
2022-08-08T05:10:18.583Z,98943.16
2022-08-08T05:13:00.135Z,98944.16
2022-08-08T05:16:48.435Z,98945.66
2022-08-08T05:18:18.914Z,98952.41
2022-08-08T05:20:50.266Z,98953.44
2022-08-08T05:23:21.339Z,98955.31
2022-08-08T05:25:51.956Z,98942.66
2022-08-08T05:28:55.897Z,98941.81
2022-08-08T05:32:02.287Z,98942.34
2022-08-08T05:34:09.015Z,98945.50
2022-08-08T05:36:42.241Z,98951.75
2022-08-08T05:39:12.238Z,98943.44
2022-08-08T05:41:55.364Z,98953.03
2022-08-08T05:44:30.985Z,98944.91
2022-08-08T05:47:03.295Z,98944.91
2022-08-08T05:49:33.508Z,98947.22
2022-08-08T05:52:07.352Z,98954.81
2022-08-08T05:58:58.044Z,98954.50
2022-08-08T06:01:51.770Z,98960.25
2022-08-08T06:04:25.026Z,98961.56
2022-08-08T06:06:54.139Z,98967.16
2022-08-08T06:09:59.383Z,98963.25
2022-08-08T06:12:18.385Z,98959.88
2022-08-08T06:14:47.932Z,98963.91
2022-08-08T06:17:19.570Z,98962.59
2022-08-08T06:19:48.475Z,98967.03
2022-08-08T06:22:32.657Z,98962.44
2022-08-08T06:25:01.906Z,98959.41
2022-08-08T06:27:38.802Z,98964.53
2022-08-08T06:30:11.962Z,98955.53
2022-08-08T06:32:53.052Z,98962.94
2022-08-08T06:36:04.217Z,98958.38
2022-08-08T06:38:14.188Z,98958.84
2022-08-08T06:40:48.541Z,98958.53
2022-08-08T06:43:28.393Z,98959.41
2022-08-08T06:46:00.241Z,98963.94
2022-08-08T06:48:30.326Z,98965.97
2022-08-08T06:51:02.379Z,98966.13
2022-08-08T06:53:39.798Z,98959.88
2022-08-08T06:56:09.201Z,98966.78
2022-08-08T06:58:40.027Z,98966.13
2022-08-08T07:01:24.465Z,98965.75
2022-08-08T07:04:37.969Z,98967.25
2022-08-08T07:06:56.795Z,98963.56
2022-08-08T07:09:45.422Z,98966.91
2022-08-08T07:12:20.730Z,98964.53
2022-08-08T07:14:55.115Z,98965.06
2022-08-08T07:17:40.116Z,98961.50
2022-08-08T07:20:20.637Z,98958.53
2022-08-08T07:23:02.949Z,98951.91
2022-08-08T07:25:34.738Z,98955.47
2022-08-08T07:28:11.574Z,98959.00
2022-08-08T07:30:48.326Z,98961.00
2022-08-08T07:33:20.477Z,98961.00
2022-08-08T07:40:29.132Z,98965.06
2022-08-08T07:43:01.935Z,98963.22
2022-08-08T07:45:34.599Z,98980.34
2022-08-08T07:48:19.909Z,98989.31
2022-08-08T07:50:52.281Z,98981.81
2022-08-08T07:54:02.256Z,98985.03
2022-08-08T07:56:16.469Z,98985.06
2022-08-08T07:59:04.640Z,98980.19
2022-08-08T08:02:33.417Z,98977.84
2022-08-08T08:04:29.160Z,98984.56
2022-08-08T08:07:00.666Z,98990.97
2022-08-08T08:09:35.861Z,98986.94
2022-08-08T08:12:06.787Z,98990.47
2022-08-08T08:14:50.976Z,98984.75
2022-08-08T08:17:21.047Z,98991.81
2022-08-08T08:19:50.625Z,98989.13
2022-08-08T08:22:25.597Z,98989.28
2022-08-08T08:25:07.620Z,98989.06
2022-08-08T08:27:38.623Z,98996.69
2022-08-08T08:30:15.903Z,98990.25
2022-08-08T08:32:51.300Z,98994.16
2022-08-08T08:35:29.351Z,98989.06
2022-08-08T08:38:16.212Z,98998.00
2022-08-08T08:40:48.821Z,99004.47
2022-08-08T08:43:26.817Z,98991.13
2022-08-08T08:45:57.835Z,98998.56
2022-08-08T08:48:26.283Z,98981.25
2022-08-08T08:50:55.774Z,98999.00
2022-08-08T08:53:55.195Z,98993.59
2022-08-08T08:56:13.445Z,98993.56
2022-08-08T08:58:46.747Z,98988.47
2022-08-08T09:01:21.485Z,98996.97
2022-08-08T09:03:52.580Z,98995.09
2022-08-08T09:06:28.463Z,98999.31
2022-08-08T09:09:07.382Z,98998.06
2022-08-08T09:12:02.407Z,98998.34
2022-08-08T09:14:42.746Z,98994.28
2022-08-08T09:17:18.420Z,98985.19
2022-08-08T09:21:57.977Z,98992.59
2022-08-08T09:22:39.396Z,98998.31
2022-08-08T09:25:10.436Z,98995.63
2022-08-08T09:27:57.099Z,98993.09
2022-08-08T09:30:29.847Z,98990.03
2022-08-08T09:33:13.147Z,98996.97
2022-08-08T09:35:50.925Z,98990.22
2022-08-08T09:38:53.098Z,98999.91
2022-08-08T09:42:14.983Z,99003.47
2022-08-08T09:44:41.630Z,99005.56
2022-08-08T09:48:02.506Z,99001.84
2022-08-08T09:50:04.750Z,98998.13
2022-08-08T09:52:56.417Z,98996.97
2022-08-08T09:55:31.154Z,98990.03
2022-08-08T09:58:26.102Z,98987.22
2022-08-08T10:01:15.067Z,98989.91
2022-08-08T10:03:56.281Z,98992.09
2022-08-08T10:06:29.516Z,98993.28
2022-08-08T10:08:58.240Z,99000.69
2022-08-08T10:12:27.508Z,98992.59
2022-08-08T10:14:34.958Z,98994.47
2022-08-08T10:17:38.736Z,98987.88
2022-08-08T10:20:00.144Z,98993.75
2022-08-08T10:22:30.048Z,98986.03
2022-08-08T10:25:07.335Z,98992.41
2022-08-08T10:27:44.836Z,98981.47
2022-08-08T10:30:16.767Z,98981.47
2022-08-08T10:33:02.386Z,98988.72
2022-08-08T10:36:09.622Z,98984.00
2022-08-08T10:38:22.124Z,98986.84
2022-08-08T10:40:53.984Z,98985.34
2022-08-08T10:43:23.466Z,98987.34
2022-08-08T10:45:55.745Z,98982.63
2022-08-08T10:48:37.183Z,98985.47
2022-08-08T10:51:14.713Z,98992.38
2022-08-08T10:53:56.914Z,98979.72
2022-08-08T10:56:32.394Z,98986.41
2022-08-08T10:59:05.039Z,98980.50
2022-08-08T11:01:34.867Z,98984.91
2022-08-08T11:04:04.611Z,98980.53
2022-08-08T11:06:36.442Z,98978.84
2022-08-08T11:09:19.849Z,98974.63
2022-08-08T11:12:04.907Z,98980.53
2022-08-08T11:14:53.367Z,98979.56
2022-08-08T11:17:59.791Z,98985.84
2022-08-08T11:20:14.643Z,98980.09
2022-08-08T11:22:51.866Z,98981.25
2022-08-08T11:25:21.667Z,98979.78
2022-08-08T11:28:10.174Z,98973.25
2022-08-08T11:30:40.885Z,98973.59
2022-08-08T11:33:19.267Z,98974.22
2022-08-08T11:35:47.969Z,98973.72
2022-08-08T11:38:36.115Z,98959.22
2022-08-08T11:41:07.657Z,98957.66
2022-08-08T11:43:39.015Z,98960.19
2022-08-08T11:46:13.991Z,98955.88
2022-08-08T11:48:47.150Z,98953.53
2022-08-08T11:51:30.698Z,98954.97
2022-08-08T11:54:27.294Z,98949.53
2022-08-08T11:56:57.900Z,98955.75
2022-08-08T12:00:01.704Z,98961.47
2022-08-08T12:02:33.078Z,98960.78
2022-08-08T12:05:07.346Z,98961.44
2022-08-08T12:07:52.335Z,98954.03
2022-08-08T12:10:23.565Z,98952.75
2022-08-08T12:13:04.254Z,98949.72
2022-08-08T12:15:43.000Z,98955.44
2022-08-08T12:18:18.191Z,98950.69
2022-08-08T12:20:50.865Z,98956.66
2022-08-08T12:23:40.022Z,98956.88
2022-08-08T12:26:17.260Z,98957.88
2022-08-08T12:28:57.405Z,98953.06
2022-08-08T12:31:39.324Z,98951.38
2022-08-08T12:34:37.306Z,98958.53
2022-08-08T12:37:08.389Z,98951.44
2022-08-08T12:40:01.070Z,98940.66
2022-08-08T12:42:33.890Z,98932.72
2022-08-08T12:45:53.711Z,98939.25
2022-08-08T12:48:09.977Z,98945.38
2022-08-08T12:50:50.504Z,98938.34
2022-08-08T12:53:21.421Z,98940.91
2022-08-08T12:56:19.281Z,98949.34
2022-08-08T12:58:49.167Z,98950.16
2022-08-08T13:01:34.429Z,98941.38
2022-08-08T13:04:18.472Z,98936.84
2022-08-08T13:07:00.824Z,98942.63
2022-08-08T13:09:43.187Z,98931.38
2022-08-08T13:12:30.431Z,98934.25
2022-08-08T13:15:03.828Z,98935.03
2022-08-08T13:18:07.555Z,98927.16
2022-08-08T13:20:22.454Z,98919.66
2022-08-08T13:23:03.350Z,98928.59
2022-08-08T13:25:40.478Z,98928.88
2022-08-08T13:28:09.698Z,98912.16
2022-08-08T13:30:39.737Z,98921.47
2022-08-08T13:33:10.646Z,98919.06
2022-08-08T13:35:43.079Z,98929.41
2022-08-08T13:38:14.460Z,98918.19
2022-08-08T13:40:45.078Z,98930.13
2022-08-08T13:43:16.140Z,98935.25
2022-08-08T13:45:47.387Z,98934.06
2022-08-08T13:48:19.618Z,98932.03
2022-08-08T13:51:24.620Z,98936.09
2022-08-08T13:53:53.221Z,98931.47
2022-08-08T13:56:41.560Z,98927.28
2022-08-08T13:59:32.959Z,98933.31
2022-08-08T14:02:07.344Z,98922.03
2022-08-08T14:04:52.856Z,98914.16
2022-08-08T14:07:23.066Z,98913.72
2022-08-08T14:10:05.253Z,98921.09
2022-08-08T14:12:43.835Z,98921.78
2022-08-08T14:15:31.547Z,98923.59
2022-08-08T14:18:36.745Z,98908.50
2022-08-08T14:21:08.124Z,98923.28
2022-08-08T14:24:03.834Z,98921.94
2022-08-08T14:26:33.635Z,98921.75
2022-08-08T14:29:06.049Z,98919.91
2022-08-08T14:32:10.762Z,98918.09
2022-08-08T14:34:39.077Z,98913.69
2022-08-08T14:37:08.425Z,98910.00
2022-08-08T14:39:48.914Z,98921.28
2022-08-08T14:42:26.803Z,98920.59
2022-08-08T14:45:00.608Z,98921.75
2022-08-08T14:47:30.349Z,98916.16
2022-08-08T14:50:21.361Z,98917.53
2022-08-08T14:53:04.272Z,98922.19
2022-08-08T14:55:41.562Z,98921.78
2022-08-08T14:58:16.487Z,98914.75
2022-08-08T15:00:49.667Z,98922.41
2022-08-08T15:03:18.786Z,98923.94
2022-08-08T15:05:54.007Z,98917.22
2022-08-08T15:08:35.283Z,98912.81
2022-08-08T15:11:09.056Z,98916.53
2022-08-08T15:13:41.098Z,98917.72
2022-08-08T15:16:27.822Z,98916.66
2022-08-08T15:18:56.645Z,98913.94
2022-08-08T15:21:30.190Z,98911.44
2022-08-08T15:23:59.211Z,98908.09
2022-08-08T15:26:29.581Z,98914.53
2022-08-08T15:28:58.504Z,98913.81
2022-08-08T15:32:02.649Z,98917.00
2022-08-08T15:34:29.462Z,98911.56
2022-08-08T15:37:04.821Z,98918.13
2022-08-08T15:39:37.473Z,98916.34
2022-08-08T15:42:13.129Z,98917.81
2022-08-08T15:44:46.890Z,98918.09
2022-08-08T15:47:18.873Z,98914.41
2022-08-08T15:49:48.657Z,98922.19
2022-08-08T15:52:20.606Z,98923.81
2022-08-08T15:54:52.289Z,98918.25
2022-08-08T15:57:21.437Z,98921.78
2022-08-08T16:00:06.538Z,98917.41
2022-08-08T16:02:50.270Z,98911.44
2022-08-08T16:05:21.048Z,98910.44
2022-08-08T16:07:53.858Z,98914.53
2022-08-08T16:13:09.302Z,98917.66
2022-08-08T16:13:30.800Z,98919.91
2022-08-08T16:16:08.984Z,98920.94
2022-08-08T16:18:42.527Z,98924.84
2022-08-08T16:21:20.765Z,98932.94
2022-08-08T16:23:56.685Z,98923.47
2022-08-08T16:26:33.973Z,98926.69
2022-08-08T16:29:07.850Z,98931.53
2022-08-08T16:31:48.459Z,98917.22
2022-08-08T16:34:19.423Z,98926.75
2022-08-08T16:36:50.438Z,98919.91
2022-08-08T16:39:59.871Z,98923.63
2022-08-08T16:42:17.885Z,98928.63
2022-08-08T16:44:54.479Z,98921.06
2022-08-08T16:47:40.451Z,98922.50
2022-08-08T16:50:14.274Z,98931.78
2022-08-08T16:55:05.579Z,98944.81
2022-08-08T16:55:52.594Z,98930.66
2022-08-08T16:58:25.829Z,98939.41
2022-08-08T17:00:58.993Z,98933.84
2022-08-08T17:03:59.804Z,98936.56
2022-08-08T17:06:36.189Z,98940.91
2022-08-08T17:09:05.216Z,98939.25
2022-08-08T17:11:39.538Z,98938.06
2022-08-08T17:14:19.714Z,98937.53
2022-08-08T17:16:58.748Z,98941.94
2022-08-08T17:19:30.220Z,98938.41
2022-08-08T17:22:01.680Z,98944.66
2022-08-08T17:24:31.193Z,98943.97
2022-08-08T17:27:02.354Z,98948.84
2022-08-08T17:29:33.947Z,98951.34
2022-08-08T17:32:05.877Z,98947.81
2022-08-08T17:35:14.517Z,98949.00
2022-08-08T17:37:27.503Z,98948.34
2022-08-08T17:40:10.516Z,98953.09
2022-08-08T17:42:47.036Z,98946.19
2022-08-08T17:45:22.802Z,98952.91
2022-08-08T17:47:54.134Z,98949.06
2022-08-08T17:50:23.861Z,98949.41
2022-08-08T17:52:53.174Z,98954.09
2022-08-08T17:56:06.310Z,98953.63
2022-08-08T17:58:12.593Z,98956.31
2022-08-08T18:00:41.721Z,98956.47
2022-08-08T18:03:13.146Z,98960.00
2022-08-08T18:05:48.841Z,98957.50
2022-08-08T18:08:36.773Z,98962.69
2022-08-08T18:11:11.800Z,98963.25
2022-08-08T18:13:45.916Z,98971.81
2022-08-08T18:16:20.665Z,98980.09
2022-08-08T18:18:56.621Z,98982.63
2022-08-08T18:21:58.952Z,98989.72
2022-08-08T18:24:19.541Z,98990.22
2022-08-08T18:26:54.307Z,98998.13
2022-08-08T18:29:29.974Z,99001.69
2022-08-08T18:32:03.500Z,99002.81
2022-08-08T18:34:33.752Z,99009.06
2022-08-08T18:37:08.161Z,99009.59
2022-08-08T18:39:38.098Z,99008.41
2022-08-08T18:42:13.793Z,99012.13
2022-08-08T18:44:55.640Z,99005.69
2022-08-08T18:47:27.299Z,99008.88
2022-08-08T18:49:58.430Z,99013.44
2022-08-08T18:52:29.883Z,99017.00
2022-08-08T18:55:09.771Z,99021.53
2022-08-08T18:57:45.122Z,99024.56
2022-08-08T19:00:20.096Z,99020.03
2022-08-08T19:02:57.003Z,99019.19
2022-08-08T19:05:31.834Z,99014.84
2022-08-08T19:08:25.861Z,99024.78
2022-08-08T19:10:58.414Z,99023.81
2022-08-08T19:13:38.337Z,99028.53
2022-08-08T19:16:19.136Z,99034.47
2022-08-08T19:18:59.986Z,99024.72
2022-08-08T19:21:33.373Z,99034.84
2022-08-08T19:24:34.028Z,99028.75
2022-08-08T19:27:05.878Z,99024.53
2022-08-08T19:29:40.793Z,99019.66
2022-08-08T19:32:13.240Z,99024.34
2022-08-08T19:34:49.287Z,99022.31
2022-08-08T19:37:43.147Z,99030.34
2022-08-08T19:40:14.585Z,99020.91
2022-08-08T19:42:45.654Z,99016.06
2022-08-08T19:45:14.395Z,99025.66
2022-08-08T19:48:04.501Z,99024.81
2022-08-08T19:50:34.172Z,99035.22
2022-08-08T19:53:02.735Z,99030.50
2022-08-08T19:55:51.578Z,99037.78
2022-08-08T19:58:20.241Z,99029.34
2022-08-08T20:00:53.187Z,99037.94
2022-08-08T20:04:02.320Z,99038.25
2022-08-08T20:06:15.602Z,99035.25
2022-08-08T20:08:48.262Z,99042.47
2022-08-08T20:11:18.729Z,99040.78
2022-08-08T20:14:11.936Z,99039.13
2022-08-08T20:16:40.455Z,99039.28
2022-08-08T20:19:10.930Z,99045.84
2022-08-08T20:21:41.698Z,99053.28
2022-08-08T20:24:10.848Z,99051.59
2022-08-08T20:26:41.913Z,99048.56
2022-08-08T20:29:18.260Z,99055.97
2022-08-08T20:32:10.523Z,99053.47
2022-08-08T20:34:36.838Z,99056.16
2022-08-08T20:37:16.034Z,99059.69
2022-08-08T20:39:51.288Z,99056.66
2022-08-08T20:42:23.738Z,99056.47
2022-08-08T20:44:58.426Z,99061.00
2022-08-08T20:47:35.873Z,99060.22
2022-08-08T20:50:10.086Z,99062.06
2022-08-08T20:52:39.550Z,99063.06
2022-08-08T20:55:22.428Z,99059.00
2022-08-08T20:57:53.961Z,99068.59
2022-08-08T21:00:26.740Z,99071.13
2022-08-08T21:02:55.230Z,99073.50
2022-08-08T21:05:31.821Z,99063.69
2022-08-08T21:08:36.914Z,99072.69
2022-08-08T21:10:52.723Z,99064.59
2022-08-08T21:13:23.450Z,99071.50
2022-08-08T21:16:20.501Z,99064.38
2022-08-08T21:18:57.543Z,99065.75
2022-08-08T21:21:39.804Z,99059.50
2022-08-08T21:24:22.277Z,99061.19
2022-08-08T21:26:57.294Z,99063.03
2022-08-08T21:30:05.630Z,99067.59
2022-08-08T21:32:19.093Z,99061.66
2022-08-08T21:34:56.752Z,99068.25
2022-08-08T21:37:55.496Z,99069.13
2022-08-08T21:40:31.955Z,99065.38
2022-08-08T21:43:00.905Z,99063.72
2022-08-08T21:47:59.135Z,99069.94
2022-08-08T21:48:22.139Z,99069.94
2022-08-08T21:51:01.842Z,99059.31
2022-08-08T21:54:32.490Z,99062.84
2022-08-08T21:56:31.054Z,99071.81
2022-08-08T21:59:08.808Z,99065.56
2022-08-08T22:01:40.897Z,99060.16
2022-08-08T22:04:11.072Z,99061.19
2022-08-08T22:06:40.715Z,99065.75
2022-08-08T22:09:11.448Z,99063.22
2022-08-08T22:12:02.492Z,99056.81
2022-08-08T22:14:28.979Z,99059.50
2022-08-08T22:17:01.219Z,99062.22
2022-08-08T22:19:30.703Z,99058.50
2022-08-08T22:22:19.203Z,99053.94
2022-08-08T22:24:49.046Z,99053.09
2022-08-08T22:27:17.542Z,99053.94
2022-08-08T22:30:13.600Z,99060.16
2022-08-08T22:32:43.317Z,99060.16
2022-08-08T22:35:23.871Z,99063.03
2022-08-08T22:37:54.351Z,99062.03
2022-08-08T22:40:26.040Z,99059.31
2022-08-08T22:43:00.212Z,99066.56
2022-08-08T22:45:29.050Z,99056.63
2022-08-08T22:47:57.469Z,99065.75
2022-08-08T22:50:28.608Z,99066.56
2022-08-08T22:54:30.435Z,99070.09
2022-08-08T22:55:57.709Z,99071.97
2022-08-08T22:58:28.480Z,99068.44
2022-08-08T23:00:59.690Z,99068.44
2022-08-08T23:03:52.551Z,99073.84
2022-08-08T23:06:17.295Z,99080.06
2022-08-08T23:08:55.220Z,99079.22
2022-08-08T23:11:31.438Z,99078.38
2022-08-08T23:14:16.598Z,99075.84
2022-08-08T23:16:46.292Z,99074.81
2022-08-08T23:19:17.874Z,99073.00
2022-08-08T23:21:46.983Z,99081.94
2022-08-08T23:24:22.356Z,99071.13
2022-08-08T23:26:55.991Z,99078.19
2022-08-08T23:29:27.186Z,99073.84
2022-08-08T23:31:59.790Z,99071.97
2022-08-08T23:34:31.019Z,99073.84
2022-08-08T23:37:00.772Z,99070.09
2022-08-08T23:39:42.163Z,99072.81
2022-08-08T23:42:21.363Z,99072.81
2022-08-08T23:44:50.441Z,99071.13
2022-08-08T23:49:05.067Z,99066.75
2022-08-08T23:50:14.955Z,99073.84
2022-08-08T23:53:05.050Z,99069.28
2022-08-08T23:55:38.339Z,99066.56
2022-08-08T23:58:32.074Z,99068.44
